sensor_id;sensor_type;location;lat;lon;timestamp;P1;durP1;ratioP1;P2;durP2;ratioP2
62633;SDS011;48704;50.534;6.442;2023-07-09T00:02:23;10.73;;;7.15;;
62633;SDS011;48704;50.534;6.442;2023-07-09T00:04:50;11.20;;;7.13;;
62633;SDS011;48704;50.534;6.442;2023-07-09T00:07:21;10.27;;;6.50;;
62633;SDS011;48704;50.534;6.442;2023-07-09T00:09:51;13.38;;;6.70;;
62633;SDS011;48704;50.534;6.442;2023-07-09T00:12:17;12.48;;;7.05;;
62633;SDS011;48704;50.534;6.442;2023-07-09T00:14:43;12.40;;;6.93;;
62633;SDS011;48704;50.534;6.442;2023-07-09T00:17:10;12.45;;;7.00;;
62633;SDS011;48704;50.534;6.442;2023-07-09T00:19:36;11.98;;;6.78;;
62633;SDS011;48704;50.534;6.442;2023-07-09T00:22:02;14.23;;;7.47;;
62633;SDS011;48704;50.534;6.442;2023-07-09T00:24:27;11.07;;;6.90;;
62633;SDS011;48704;50.534;6.442;2023-07-09T00:26:53;13.05;;;7.20;;
62633;SDS011;48704;50.534;6.442;2023-07-09T00:29:18;11.57;;;7.45;;
62633;SDS011;48704;50.534;6.442;2023-07-09T00:31:44;14.50;;;7.82;;
62633;SDS011;48704;50.534;6.442;2023-07-09T00:34:10;12.23;;;7.13;;
62633;SDS011;48704;50.534;6.442;2023-07-09T00:36:38;12.02;;;7.00;;
62633;SDS011;48704;50.534;6.442;2023-07-09T00:39:04;10.48;;;7.05;;
62633;SDS011;48704;50.534;6.442;2023-07-09T00:41:36;12.35;;;7.57;;
62633;SDS011;48704;50.534;6.442;2023-07-09T00:44:23;12.98;;;7.88;;
62633;SDS011;48704;50.534;6.442;2023-07-09T00:49:36;13.57;;;7.32;;
62633;SDS011;48704;50.534;6.442;2023-07-09T00:52:17;15.75;;;7.10;;
62633;SDS011;48704;50.534;6.442;2023-07-09T00:54:48;13.63;;;7.10;;
62633;SDS011;48704;50.534;6.442;2023-07-09T00:57:16;11.60;;;6.97;;
62633;SDS011;48704;50.534;6.442;2023-07-09T00:59:48;14.40;;;7.93;;
62633;SDS011;48704;50.534;6.442;2023-07-09T01:02:18;11.02;;;6.38;;
62633;SDS011;48704;50.534;6.442;2023-07-09T01:04:49;13.35;;;6.65;;
62633;SDS011;48704;50.534;6.442;2023-07-09T01:07:16;12.75;;;7.05;;
62633;SDS011;48704;50.534;6.442;2023-07-09T01:09:42;10.90;;;6.28;;
62633;SDS011;48704;50.534;6.442;2023-07-09T01:12:07;10.98;;;6.53;;
62633;SDS011;48704;50.534;6.442;2023-07-09T01:14:34;11.38;;;6.20;;
62633;SDS011;48704;50.534;6.442;2023-07-09T01:17:05;11.45;;;6.18;;
62633;SDS011;48704;50.534;6.442;2023-07-09T01:19:39;10.57;;;6.40;;
62633;SDS011;48704;50.534;6.442;2023-07-09T01:22:09;10.23;;;5.93;;
62633;SDS011;48704;50.534;6.442;2023-07-09T01:27:33;10.90;;;6.63;;
62633;SDS011;48704;50.534;6.442;2023-07-09T01:30:03;9.85;;;6.65;;
62633;SDS011;48704;50.534;6.442;2023-07-09T01:32:31;10.63;;;6.35;;
62633;SDS011;48704;50.534;6.442;2023-07-09T01:34:58;10.77;;;6.55;;
62633;SDS011;48704;50.534;6.442;2023-07-09T01:37:30;10.30;;;7.07;;
62633;SDS011;48704;50.534;6.442;2023-07-09T01:39:56;10.50;;;6.32;;
62633;SDS011;48704;50.534;6.442;2023-07-09T01:42:22;12.48;;;6.28;;
62633;SDS011;48704;50.534;6.442;2023-07-09T01:44:50;10.63;;;6.00;;
62633;SDS011;48704;50.534;6.442;2023-07-09T01:47:16;12.05;;;5.80;;
62633;SDS011;48704;50.534;6.442;2023-07-09T01:49:42;11.70;;;6.30;;
62633;SDS011;48704;50.534;6.442;2023-07-09T01:52:11;9.68;;;5.78;;
62633;SDS011;48704;50.534;6.442;2023-07-09T01:54:38;11.23;;;6.72;;
62633;SDS011;48704;50.534;6.442;2023-07-09T02:00:03;11.10;;;6.28;;
62633;SDS011;48704;50.534;6.442;2023-07-09T02:02:30;11.35;;;6.88;;
62633;SDS011;48704;50.534;6.442;2023-07-09T02:04:57;9.32;;;6.35;;
62633;SDS011;48704;50.534;6.442;2023-07-09T02:07:24;10.82;;;6.57;;
62633;SDS011;48704;50.534;6.442;2023-07-09T02:09:50;9.93;;;6.32;;
62633;SDS011;48704;50.534;6.442;2023-07-09T02:12:16;10.63;;;6.40;;
62633;SDS011;48704;50.534;6.442;2023-07-09T02:14:43;9.98;;;6.25;;
62633;SDS011;48704;50.534;6.442;2023-07-09T02:17:09;9.20;;;5.72;;
62633;SDS011;48704;50.534;6.442;2023-07-09T02:19:36;10.45;;;6.32;;
62633;SDS011;48704;50.534;6.442;2023-07-09T02:22:02;11.05;;;6.25;;
62633;SDS011;48704;50.534;6.442;2023-07-09T02:24:28;12.20;;;6.50;;
62633;SDS011;48704;50.534;6.442;2023-07-09T02:26:53;11.48;;;6.63;;
62633;SDS011;48704;50.534;6.442;2023-07-09T02:29:20;10.60;;;6.43;;
62633;SDS011;48704;50.534;6.442;2023-07-09T02:31:45;10.90;;;5.95;;
62633;SDS011;48704;50.534;6.442;2023-07-09T02:34:13;8.68;;;5.70;;
62633;SDS011;48704;50.534;6.442;2023-07-09T02:36:38;10.35;;;5.90;;
62633;SDS011;48704;50.534;6.442;2023-07-09T02:39:07;9.32;;;5.78;;
62633;SDS011;48704;50.534;6.442;2023-07-09T02:41:34;8.05;;;5.40;;
62633;SDS011;48704;50.534;6.442;2023-07-09T02:43:59;9.30;;;5.40;;
62633;SDS011;48704;50.534;6.442;2023-07-09T02:46:24;7.22;;;5.18;;
62633;SDS011;48704;50.534;6.442;2023-07-09T02:48:49;8.60;;;5.80;;
62633;SDS011;48704;50.534;6.442;2023-07-09T02:51:15;8.90;;;6.25;;
62633;SDS011;48704;50.534;6.442;2023-07-09T02:53:40;9.85;;;6.43;;
62633;SDS011;48704;50.534;6.442;2023-07-09T02:56:05;9.80;;;5.72;;
62633;SDS011;48704;50.534;6.442;2023-07-09T02:58:31;8.80;;;6.18;;
62633;SDS011;48704;50.534;6.442;2023-07-09T03:00:56;9.63;;;5.80;;
62633;SDS011;48704;50.534;6.442;2023-07-09T03:03:21;12.48;;;5.97;;
62633;SDS011;48704;50.534;6.442;2023-07-09T03:05:47;10.15;;;5.80;;
62633;SDS011;48704;50.534;6.442;2023-07-09T03:08:13;9.45;;;6.13;;
62633;SDS011;48704;50.534;6.442;2023-07-09T03:10:39;9.48;;;6.30;;
62633;SDS011;48704;50.534;6.442;2023-07-09T03:13:04;12.20;;;6.05;;
62633;SDS011;48704;50.534;6.442;2023-07-09T03:15:30;12.60;;;5.82;;
62633;SDS011;48704;50.534;6.442;2023-07-09T03:17:56;8.68;;;5.80;;
62633;SDS011;48704;50.534;6.442;2023-07-09T03:20:22;9.77;;;5.50;;
62633;SDS011;48704;50.534;6.442;2023-07-09T03:22:47;8.88;;;5.95;;
62633;SDS011;48704;50.534;6.442;2023-07-09T03:25:12;9.25;;;6.15;;
62633;SDS011;48704;50.534;6.442;2023-07-09T03:27:37;11.30;;;5.32;;
62633;SDS011;48704;50.534;6.442;2023-07-09T03:30:03;9.57;;;5.70;;
62633;SDS011;48704;50.534;6.442;2023-07-09T03:32:29;9.95;;;5.60;;
62633;SDS011;48704;50.534;6.442;2023-07-09T03:34:55;10.50;;;5.90;;
62633;SDS011;48704;50.534;6.442;2023-07-09T03:37:20;9.85;;;5.70;;
62633;SDS011;48704;50.534;6.442;2023-07-09T03:39:46;9.10;;;5.30;;
62633;SDS011;48704;50.534;6.442;2023-07-09T03:42:11;10.23;;;5.63;;
62633;SDS011;48704;50.534;6.442;2023-07-09T03:44:36;9.70;;;5.47;;
62633;SDS011;48704;50.534;6.442;2023-07-09T03:47:02;10.25;;;5.05;;
62633;SDS011;48704;50.534;6.442;2023-07-09T03:49:28;11.02;;;5.75;;
62633;SDS011;48704;50.534;6.442;2023-07-09T03:51:53;9.35;;;5.15;;
62633;SDS011;48704;50.534;6.442;2023-07-09T03:54:19;11.30;;;5.97;;
62633;SDS011;48704;50.534;6.442;2023-07-09T03:56:44;9.55;;;6.03;;
62633;SDS011;48704;50.534;6.442;2023-07-09T03:59:10;8.20;;;4.78;;
62633;SDS011;48704;50.534;6.442;2023-07-09T04:01:35;10.05;;;5.40;;
62633;SDS011;48704;50.534;6.442;2023-07-09T04:04:00;10.18;;;5.25;;
62633;SDS011;48704;50.534;6.442;2023-07-09T04:06:26;8.32;;;5.18;;
62633;SDS011;48704;50.534;6.442;2023-07-09T04:08:51;8.57;;;4.82;;
62633;SDS011;48704;50.534;6.442;2023-07-09T04:11:16;8.23;;;4.55;;
62633;SDS011;48704;50.534;6.442;2023-07-09T04:13:41;6.97;;;4.63;;
62633;SDS011;48704;50.534;6.442;2023-07-09T04:16:09;9.10;;;4.65;;
62633;SDS011;48704;50.534;6.442;2023-07-09T04:18:35;10.27;;;5.00;;
62633;SDS011;48704;50.534;6.442;2023-07-09T04:21:01;9.07;;;4.97;;
62633;SDS011;48704;50.534;6.442;2023-07-09T04:23:27;9.32;;;5.22;;
62633;SDS011;48704;50.534;6.442;2023-07-09T04:25:52;7.70;;;4.68;;
62633;SDS011;48704;50.534;6.442;2023-07-09T04:28:17;10.43;;;4.55;;
62633;SDS011;48704;50.534;6.442;2023-07-09T04:30:49;8.98;;;4.78;;
62633;SDS011;48704;50.534;6.442;2023-07-09T04:33:16;8.27;;;4.30;;
62633;SDS011;48704;50.534;6.442;2023-07-09T04:35:43;8.77;;;4.80;;
62633;SDS011;48704;50.534;6.442;2023-07-09T04:38:11;8.57;;;4.75;;
62633;SDS011;48704;50.534;6.442;2023-07-09T04:40:37;7.30;;;4.68;;
62633;SDS011;48704;50.534;6.442;2023-07-09T04:43:02;8.23;;;4.82;;
62633;SDS011;48704;50.534;6.442;2023-07-09T04:45:27;6.38;;;4.32;;
62633;SDS011;48704;50.534;6.442;2023-07-09T04:47:52;8.75;;;4.80;;
62633;SDS011;48704;50.534;6.442;2023-07-09T04:50:18;7.97;;;4.50;;
62633;SDS011;48704;50.534;6.442;2023-07-09T04:52:43;7.53;;;4.75;;
62633;SDS011;48704;50.534;6.442;2023-07-09T04:55:09;11.30;;;4.60;;
62633;SDS011;48704;50.534;6.442;2023-07-09T04:57:34;7.65;;;4.63;;
62633;SDS011;48704;50.534;6.442;2023-07-09T05:00:00;7.63;;;4.35;;
62633;SDS011;48704;50.534;6.442;2023-07-09T05:02:25;9.25;;;4.50;;
62633;SDS011;48704;50.534;6.442;2023-07-09T05:04:51;10.23;;;4.57;;
62633;SDS011;48704;50.534;6.442;2023-07-09T05:07:16;9.70;;;4.88;;
62633;SDS011;48704;50.534;6.442;2023-07-09T05:09:42;6.93;;;4.55;;
62633;SDS011;48704;50.534;6.442;2023-07-09T05:12:07;9.13;;;5.15;;
62633;SDS011;48704;50.534;6.442;2023-07-09T05:14:33;8.55;;;4.15;;
62633;SDS011;48704;50.534;6.442;2023-07-09T05:16:59;8.00;;;4.82;;
62633;SDS011;48704;50.534;6.442;2023-07-09T05:19:24;9.40;;;4.80;;
62633;SDS011;48704;50.534;6.442;2023-07-09T05:21:49;9.15;;;4.90;;
62633;SDS011;48704;50.534;6.442;2023-07-09T05:24:14;9.55;;;5.10;;
62633;SDS011;48704;50.534;6.442;2023-07-09T05:26:40;7.38;;;4.82;;
62633;SDS011;48704;50.534;6.442;2023-07-09T05:29:05;9.48;;;4.97;;
62633;SDS011;48704;50.534;6.442;2023-07-09T05:31:31;7.90;;;4.72;;
62633;SDS011;48704;50.534;6.442;2023-07-09T05:33:58;8.32;;;5.20;;
62633;SDS011;48704;50.534;6.442;2023-07-09T05:36:25;8.77;;;4.43;;
62633;SDS011;48704;50.534;6.442;2023-07-09T05:38:52;10.75;;;4.65;;
62633;SDS011;48704;50.534;6.442;2023-07-09T05:41:17;7.25;;;4.65;;
62633;SDS011;48704;50.534;6.442;2023-07-09T05:43:43;8.73;;;4.70;;
62633;SDS011;48704;50.534;6.442;2023-07-09T05:46:09;8.50;;;5.40;;
62633;SDS011;48704;50.534;6.442;2023-07-09T05:48:35;8.80;;;4.95;;
62633;SDS011;48704;50.534;6.442;2023-07-09T05:51:00;10.10;;;4.87;;
62633;SDS011;48704;50.534;6.442;2023-07-09T05:53:25;11.40;;;4.72;;
62633;SDS011;48704;50.534;6.442;2023-07-09T05:55:54;8.40;;;5.00;;
62633;SDS011;48704;50.534;6.442;2023-07-09T05:58:21;7.13;;;4.43;;
62633;SDS011;48704;50.534;6.442;2023-07-09T06:00:49;8.52;;;4.72;;
62633;SDS011;48704;50.534;6.442;2023-07-09T06:03:18;7.38;;;4.05;;
62633;SDS011;48704;50.534;6.442;2023-07-09T06:05:48;8.05;;;4.30;;
62633;SDS011;48704;50.534;6.442;2023-07-09T06:08:15;6.97;;;4.72;;
62633;SDS011;48704;50.534;6.442;2023-07-09T06:10:49;7.18;;;4.60;;
62633;SDS011;48704;50.534;6.442;2023-07-09T06:13:19;10.00;;;4.72;;
62633;SDS011;48704;50.534;6.442;2023-07-09T06:15:46;8.80;;;4.60;;
62633;SDS011;48704;50.534;6.442;2023-07-09T06:18:12;6.97;;;4.68;;
62633;SDS011;48704;50.534;6.442;2023-07-09T06:20:38;7.47;;;4.45;;
62633;SDS011;48704;50.534;6.442;2023-07-09T06:23:03;8.68;;;4.72;;
62633;SDS011;48704;50.534;6.442;2023-07-09T06:25:28;7.85;;;4.90;;
62633;SDS011;48704;50.534;6.442;2023-07-09T06:27:53;9.07;;;4.93;;
62633;SDS011;48704;50.534;6.442;2023-07-09T06:30:19;7.88;;;5.07;;
62633;SDS011;48704;50.534;6.442;2023-07-09T06:32:44;8.60;;;4.85;;
62633;SDS011;48704;50.534;6.442;2023-07-09T06:35:10;8.18;;;4.47;;
62633;SDS011;48704;50.534;6.442;2023-07-09T06:37:36;8.27;;;5.00;;
62633;SDS011;48704;50.534;6.442;2023-07-09T06:40:01;8.40;;;4.82;;
62633;SDS011;48704;50.534;6.442;2023-07-09T06:42:28;10.20;;;5.00;;
62633;SDS011;48704;50.534;6.442;2023-07-09T06:44:53;7.50;;;5.13;;
62633;SDS011;48704;50.534;6.442;2023-07-09T06:47:18;7.50;;;4.70;;
62633;SDS011;48704;50.534;6.442;2023-07-09T06:49:43;8.38;;;4.20;;
62633;SDS011;48704;50.534;6.442;2023-07-09T06:52:09;6.28;;;4.28;;
62633;SDS011;48704;50.534;6.442;2023-07-09T06:54:34;7.63;;;4.63;;
62633;SDS011;48704;50.534;6.442;2023-07-09T06:56:59;7.53;;;4.60;;
62633;SDS011;48704;50.534;6.442;2023-07-09T06:59:25;7.88;;;4.50;;
62633;SDS011;48704;50.534;6.442;2023-07-09T07:01:50;8.43;;;4.22;;
62633;SDS011;48704;50.534;6.442;2023-07-09T07:04:15;10.38;;;4.57;;
62633;SDS011;48704;50.534;6.442;2023-07-09T07:06:40;6.63;;;4.00;;
62633;SDS011;48704;50.534;6.442;2023-07-09T07:09:06;8.77;;;4.40;;
62633;SDS011;48704;50.534;6.442;2023-07-09T07:11:31;5.27;;;3.83;;
62633;SDS011;48704;50.534;6.442;2023-07-09T07:13:56;8.15;;;4.40;;
62633;SDS011;48704;50.534;6.442;2023-07-09T07:16:22;7.38;;;4.22;;
62633;SDS011;48704;50.534;6.442;2023-07-09T07:18:47;10.70;;;4.63;;
62633;SDS011;48704;50.534;6.442;2023-07-09T07:21:13;6.68;;;4.15;;
62633;SDS011;48704;50.534;6.442;2023-07-09T07:23:38;5.55;;;3.83;;
62633;SDS011;48704;50.534;6.442;2023-07-09T07:26:03;7.57;;;4.45;;
62633;SDS011;48704;50.534;6.442;2023-07-09T07:28:29;9.68;;;4.72;;
62633;SDS011;48704;50.534;6.442;2023-07-09T07:31:13;6.40;;;3.88;;
62633;SDS011;48704;50.534;6.442;2023-07-09T07:33:39;6.95;;;4.30;;
62633;SDS011;48704;50.534;6.442;2023-07-09T07:36:06;8.55;;;4.25;;
62633;SDS011;48704;50.534;6.442;2023-07-09T07:38:32;12.07;;;4.35;;
62633;SDS011;48704;50.534;6.442;2023-07-09T07:40:58;8.73;;;4.30;;
62633;SDS011;48704;50.534;6.442;2023-07-09T07:43:23;10.33;;;4.50;;
62633;SDS011;48704;50.534;6.442;2023-07-09T07:45:48;9.43;;;4.30;;
62633;SDS011;48704;50.534;6.442;2023-07-09T07:48:14;10.65;;;4.10;;
62633;SDS011;48704;50.534;6.442;2023-07-09T07:50:39;6.55;;;4.30;;
62633;SDS011;48704;50.534;6.442;2023-07-09T07:53:05;8.80;;;4.13;;
62633;SDS011;48704;50.534;6.442;2023-07-09T07:55:32;8.60;;;4.13;;
62633;SDS011;48704;50.534;6.442;2023-07-09T07:57:58;9.65;;;4.13;;
62633;SDS011;48704;50.534;6.442;2023-07-09T08:00:25;6.97;;;3.58;;
62633;SDS011;48704;50.534;6.442;2023-07-09T08:02:50;9.45;;;3.60;;
62633;SDS011;48704;50.534;6.442;2023-07-09T08:05:16;7.85;;;3.97;;
62633;SDS011;48704;50.534;6.442;2023-07-09T08:07:41;8.65;;;3.95;;
62633;SDS011;48704;50.534;6.442;2023-07-09T08:10:07;7.55;;;3.80;;
62633;SDS011;48704;50.534;6.442;2023-07-09T08:12:33;6.28;;;3.58;;
62633;SDS011;48704;50.534;6.442;2023-07-09T08:14:58;6.15;;;3.75;;
62633;SDS011;48704;50.534;6.442;2023-07-09T08:17:23;6.15;;;3.40;;
62633;SDS011;48704;50.534;6.442;2023-07-09T08:19:50;7.07;;;3.58;;
62633;SDS011;48704;50.534;6.442;2023-07-09T08:22:18;8.77;;;3.78;;
62633;SDS011;48704;50.534;6.442;2023-07-09T08:24:47;7.78;;;3.33;;
62633;SDS011;48704;50.534;6.442;2023-07-09T08:27:13;7.93;;;3.75;;
62633;SDS011;48704;50.534;6.442;2023-07-09T08:29:38;9.93;;;3.65;;
62633;SDS011;48704;50.534;6.442;2023-07-09T08:32:05;5.88;;;3.35;;
62633;SDS011;48704;50.534;6.442;2023-07-09T08:34:30;9.02;;;3.70;;
62633;SDS011;48704;50.534;6.442;2023-07-09T08:36:56;5.65;;;3.47;;
62633;SDS011;48704;50.534;6.442;2023-07-09T08:39:21;5.83;;;3.20;;
62633;SDS011;48704;50.534;6.442;2023-07-09T08:50:01;5.93;;;3.88;;
62633;SDS011;48704;50.534;6.442;2023-07-09T08:55:06;6.82;;;3.80;;
62633;SDS011;48704;50.534;6.442;2023-07-09T08:57:37;7.25;;;3.85;;
62633;SDS011;48704;50.534;6.442;2023-07-09T09:03:15;6.90;;;3.53;;
62633;SDS011;48704;50.534;6.442;2023-07-09T09:06:03;8.45;;;3.85;;
62633;SDS011;48704;50.534;6.442;2023-07-09T09:08:40;7.50;;;3.50;;
62633;SDS011;48704;50.534;6.442;2023-07-09T09:13:58;8.45;;;4.07;;
62633;SDS011;48704;50.534;6.442;2023-07-09T09:16:29;4.88;;;3.22;;
62633;SDS011;48704;50.534;6.442;2023-07-09T09:18:58;6.55;;;3.67;;
62633;SDS011;48704;50.534;6.442;2023-07-09T09:21:34;5.82;;;3.33;;
62633;SDS011;48704;50.534;6.442;2023-07-09T09:24:09;5.57;;;3.25;;
62633;SDS011;48704;50.534;6.442;2023-07-09T09:26:39;7.68;;;3.88;;
62633;SDS011;48704;50.534;6.442;2023-07-09T09:29:12;10.48;;;3.30;;
62633;SDS011;48704;50.534;6.442;2023-07-09T09:31:39;5.78;;;3.42;;
62633;SDS011;48704;50.534;6.442;2023-07-09T09:34:06;5.30;;;3.22;;
62633;SDS011;48704;50.534;6.442;2023-07-09T09:36:42;7.15;;;3.15;;
62633;SDS011;48704;50.534;6.442;2023-07-09T09:39:08;7.87;;;3.93;;
62633;SDS011;48704;50.534;6.442;2023-07-09T09:41:34;7.38;;;3.60;;
62633;SDS011;48704;50.534;6.442;2023-07-09T09:44:01;6.35;;;3.53;;
62633;SDS011;48704;50.534;6.442;2023-07-09T09:46:27;5.65;;;3.47;;
62633;SDS011;48704;50.534;6.442;2023-07-09T09:48:54;6.32;;;3.53;;
62633;SDS011;48704;50.534;6.442;2023-07-09T09:51:22;8.55;;;3.45;;
62633;SDS011;48704;50.534;6.442;2023-07-09T09:53:49;7.85;;;4.20;;
62633;SDS011;48704;50.534;6.442;2023-07-09T09:56:23;6.18;;;3.50;;
62633;SDS011;48704;50.534;6.442;2023-07-09T09:58:55;12.10;;;3.30;;
62633;SDS011;48704;50.534;6.442;2023-07-09T10:01:26;6.90;;;3.58;;
62633;SDS011;48704;50.534;6.442;2023-07-09T10:03:57;6.25;;;3.08;;
62633;SDS011;48704;50.534;6.442;2023-07-09T10:14:34;5.80;;;3.53;;
62633;SDS011;48704;50.534;6.442;2023-07-09T10:19:56;10.07;;;4.05;;
62633;SDS011;48704;50.534;6.442;2023-07-09T10:22:48;6.13;;;3.15;;
62633;SDS011;48704;50.534;6.442;2023-07-09T10:25:27;5.18;;;3.30;;
62633;SDS011;48704;50.534;6.442;2023-07-09T10:36:14;8.23;;;3.67;;
62633;SDS011;48704;50.534;6.442;2023-07-09T10:39:00;6.35;;;3.47;;
62633;SDS011;48704;50.534;6.442;2023-07-09T10:41:30;6.00;;;3.55;;
62633;SDS011;48704;50.534;6.442;2023-07-09T10:44:06;5.93;;;3.53;;
62633;SDS011;48704;50.534;6.442;2023-07-09T10:46:40;6.35;;;2.85;;
62633;SDS011;48704;50.534;6.442;2023-07-09T10:49:10;8.48;;;3.47;;
62633;SDS011;48704;50.534;6.442;2023-07-09T10:51:39;7.10;;;3.15;;
62633;SDS011;48704;50.534;6.442;2023-07-09T10:54:15;6.47;;;3.20;;
62633;SDS011;48704;50.534;6.442;2023-07-09T10:57:29;6.78;;;3.60;;
62633;SDS011;48704;50.534;6.442;2023-07-09T10:59:53;5.85;;;3.30;;
62633;SDS011;48704;50.534;6.442;2023-07-09T11:02:21;5.93;;;3.30;;
62633;SDS011;48704;50.534;6.442;2023-07-09T11:05:00;5.28;;;3.20;;
62633;SDS011;48704;50.534;6.442;2023-07-09T11:10:04;7.25;;;3.35;;
62633;SDS011;48704;50.534;6.442;2023-07-09T11:12:54;8.27;;;3.38;;
62633;SDS011;48704;50.534;6.442;2023-07-09T11:15:30;6.75;;;3.38;;
62633;SDS011;48704;50.534;6.442;2023-07-09T11:17:59;5.57;;;3.13;;
62633;SDS011;48704;50.534;6.442;2023-07-09T11:20:25;5.97;;;3.47;;
62633;SDS011;48704;50.534;6.442;2023-07-09T11:23:03;9.13;;;3.38;;
62633;SDS011;48704;50.534;6.442;2023-07-09T11:25:39;6.35;;;3.50;;
62633;SDS011;48704;50.534;6.442;2023-07-09T11:28:07;7.70;;;3.60;;
62633;SDS011;48704;50.534;6.442;2023-07-09T11:30:32;6.43;;;3.08;;
62633;SDS011;48704;50.534;6.442;2023-07-09T11:33:19;10.63;;;3.67;;
62633;SDS011;48704;50.534;6.442;2023-07-09T11:35:49;7.32;;;3.30;;
62633;SDS011;48704;50.534;6.442;2023-07-09T11:38:25;7.93;;;3.20;;
62633;SDS011;48704;50.534;6.442;2023-07-09T11:40:52;7.25;;;3.72;;
62633;SDS011;48704;50.534;6.442;2023-07-09T11:43:26;6.97;;;3.80;;
62633;SDS011;48704;50.534;6.442;2023-07-09T11:46:22;6.75;;;3.58;;
62633;SDS011;48704;50.534;6.442;2023-07-09T11:48:51;9.88;;;3.60;;
62633;SDS011;48704;50.534;6.442;2023-07-09T11:51:23;7.20;;;3.70;;
62633;SDS011;48704;50.534;6.442;2023-07-09T11:53:59;5.85;;;3.00;;
62633;SDS011;48704;50.534;6.442;2023-07-09T11:56:25;6.85;;;3.60;;
62633;SDS011;48704;50.534;6.442;2023-07-09T11:58:57;7.23;;;3.50;;
62633;SDS011;48704;50.534;6.442;2023-07-09T12:01:26;6.30;;;3.53;;
62633;SDS011;48704;50.534;6.442;2023-07-09T12:03:57;6.72;;;3.60;;
62633;SDS011;48704;50.534;6.442;2023-07-09T12:06:23;7.47;;;3.65;;
62633;SDS011;48704;50.534;6.442;2023-07-09T12:08:52;8.23;;;3.45;;
62633;SDS011;48704;50.534;6.442;2023-07-09T12:11:23;6.95;;;3.45;;
62633;SDS011;48704;50.534;6.442;2023-07-09T12:13:50;8.60;;;4.10;;
62633;SDS011;48704;50.534;6.442;2023-07-09T12:16:18;6.13;;;3.75;;
62633;SDS011;48704;50.534;6.442;2023-07-09T12:18:46;8.13;;;4.35;;
62633;SDS011;48704;50.534;6.442;2023-07-09T12:21:11;5.50;;;3.03;;
62633;SDS011;48704;50.534;6.442;2023-07-09T12:23:37;5.55;;;3.42;;
62633;SDS011;48704;50.534;6.442;2023-07-09T12:26:05;7.35;;;3.35;;
62633;SDS011;48704;50.534;6.442;2023-07-09T12:28:36;7.07;;;3.38;;
62633;SDS011;48704;50.534;6.442;2023-07-09T12:31:02;6.68;;;3.70;;
62633;SDS011;48704;50.534;6.442;2023-07-09T12:33:27;7.75;;;3.58;;
62633;SDS011;48704;50.534;6.442;2023-07-09T12:36:00;5.35;;;3.55;;
62633;SDS011;48704;50.534;6.442;2023-07-09T12:38:29;8.10;;;3.38;;
62633;SDS011;48704;50.534;6.442;2023-07-09T12:40:59;7.78;;;4.07;;
62633;SDS011;48704;50.534;6.442;2023-07-09T12:43:26;6.63;;;3.78;;
62633;SDS011;48704;50.534;6.442;2023-07-09T12:45:53;8.00;;;3.97;;
62633;SDS011;48704;50.534;6.442;2023-07-09T12:48:24;8.30;;;3.95;;
62633;SDS011;48704;50.534;6.442;2023-07-09T12:50:53;6.22;;;3.90;;
62633;SDS011;48704;50.534;6.442;2023-07-09T12:53:20;7.97;;;3.90;;
62633;SDS011;48704;50.534;6.442;2023-07-09T12:55:48;8.20;;;4.20;;
62633;SDS011;48704;50.534;6.442;2023-07-09T12:58:23;5.15;;;3.40;;
62633;SDS011;48704;50.534;6.442;2023-07-09T13:00:50;8.80;;;4.20;;
62633;SDS011;48704;50.534;6.442;2023-07-09T13:03:21;6.28;;;3.72;;
62633;SDS011;48704;50.534;6.442;2023-07-09T13:05:52;6.60;;;3.60;;
62633;SDS011;48704;50.534;6.442;2023-07-09T13:08:19;7.78;;;3.78;;
62633;SDS011;48704;50.534;6.442;2023-07-09T13:10:45;8.23;;;4.07;;
62633;SDS011;48704;50.534;6.442;2023-07-09T13:13:11;6.47;;;4.03;;
62633;SDS011;48704;50.534;6.442;2023-07-09T13:15:47;5.47;;;3.85;;
62633;SDS011;48704;50.534;6.442;2023-07-09T13:18:31;6.65;;;3.97;;
62633;SDS011;48704;50.534;6.442;2023-07-09T13:20:56;8.55;;;4.35;;
62633;SDS011;48704;50.534;6.442;2023-07-09T13:23:40;7.97;;;4.22;;
62633;SDS011;48704;50.534;6.442;2023-07-09T13:26:07;8.05;;;4.07;;
62633;SDS011;48704;50.534;6.442;2023-07-09T13:28:33;4.68;;;3.60;;
62633;SDS011;48704;50.534;6.442;2023-07-09T13:31:17;4.95;;;3.17;;
62633;SDS011;48704;50.534;6.442;2023-07-09T13:33:44;5.97;;;3.90;;
62633;SDS011;48704;50.534;6.442;2023-07-09T13:36:17;9.90;;;3.67;;
62633;SDS011;48704;50.534;6.442;2023-07-09T13:38:43;9.30;;;4.30;;
62633;SDS011;48704;50.534;6.442;2023-07-09T13:41:16;6.03;;;3.65;;
62633;SDS011;48704;50.534;6.442;2023-07-09T13:43:47;7.35;;;3.90;;
62633;SDS011;48704;50.534;6.442;2023-07-09T13:46:13;6.75;;;3.78;;
62633;SDS011;48704;50.534;6.442;2023-07-09T13:48:40;10.65;;;4.72;;
62633;SDS011;48704;50.534;6.442;2023-07-09T13:51:14;8.65;;;4.45;;
62633;SDS011;48704;50.534;6.442;2023-07-09T13:53:42;15.02;;;5.90;;
62633;SDS011;48704;50.534;6.442;2023-07-09T13:56:08;10.75;;;5.43;;
62633;SDS011;48704;50.534;6.442;2023-07-09T13:58:33;8.70;;;5.30;;
62633;SDS011;48704;50.534;6.442;2023-07-09T14:00:59;10.63;;;5.53;;
62633;SDS011;48704;50.534;6.442;2023-07-09T14:03:34;7.22;;;4.75;;
62633;SDS011;48704;50.534;6.442;2023-07-09T14:06:00;10.25;;;5.60;;
62633;SDS011;48704;50.534;6.442;2023-07-09T14:08:26;8.68;;;5.72;;
62633;SDS011;48704;50.534;6.442;2023-07-09T14:10:51;10.07;;;5.10;;
62633;SDS011;48704;50.534;6.442;2023-07-09T14:13:19;10.40;;;5.38;;
62633;SDS011;48704;50.534;6.442;2023-07-09T14:15:46;9.32;;;5.50;;
62633;SDS011;48704;50.534;6.442;2023-07-09T14:18:16;9.07;;;5.57;;
62633;SDS011;48704;50.534;6.442;2023-07-09T14:20:43;10.40;;;5.45;;
62633;SDS011;48704;50.534;6.442;2023-07-09T14:23:12;9.90;;;5.28;;
62633;SDS011;48704;50.534;6.442;2023-07-09T14:25:39;8.30;;;5.55;;
62633;SDS011;48704;50.534;6.442;2023-07-09T14:28:12;8.85;;;5.55;;
62633;SDS011;48704;50.534;6.442;2023-07-09T14:30:40;8.13;;;5.35;;
62633;SDS011;48704;50.534;6.442;2023-07-09T14:33:09;10.43;;;5.88;;
62633;SDS011;48704;50.534;6.442;2023-07-09T14:35:38;9.60;;;5.68;;
62633;SDS011;48704;50.534;6.442;2023-07-09T14:38:03;9.80;;;6.13;;
62633;SDS011;48704;50.534;6.442;2023-07-09T14:40:36;9.48;;;5.60;;
62633;SDS011;48704;50.534;6.442;2023-07-09T14:43:04;9.93;;;6.18;;
62633;SDS011;48704;50.534;6.442;2023-07-09T14:45:30;9.75;;;5.90;;
62633;SDS011;48704;50.534;6.442;2023-07-09T14:47:57;9.45;;;5.82;;
62633;SDS011;48704;50.534;6.442;2023-07-09T14:50:22;7.35;;;5.05;;
62633;SDS011;48704;50.534;6.442;2023-07-09T14:52:48;16.17;;;5.72;;
62633;SDS011;48704;50.534;6.442;2023-07-09T14:55:15;8.48;;;5.28;;
62633;SDS011;48704;50.534;6.442;2023-07-09T14:57:42;8.75;;;5.22;;
62633;SDS011;48704;50.534;6.442;2023-07-09T15:00:15;7.70;;;4.70;;
62633;SDS011;48704;50.534;6.442;2023-07-09T15:02:43;8.15;;;3.92;;
62633;SDS011;48704;50.534;6.442;2023-07-09T15:05:14;9.70;;;4.38;;
62633;SDS011;48704;50.534;6.442;2023-07-09T15:07:48;8.95;;;4.20;;
62633;SDS011;48704;50.534;6.442;2023-07-09T15:10:14;7.53;;;4.55;;
62633;SDS011;48704;50.534;6.442;2023-07-09T15:12:41;8.00;;;3.90;;
62633;SDS011;48704;50.534;6.442;2023-07-09T15:15:27;6.80;;;3.38;;
62633;SDS011;48704;50.534;6.442;2023-07-09T15:17:55;5.00;;;2.58;;
62633;SDS011;48704;50.534;6.442;2023-07-09T15:20:25;5.03;;;2.70;;
62633;SDS011;48704;50.534;6.442;2023-07-09T15:22:53;6.50;;;2.67;;
62633;SDS011;48704;50.534;6.442;2023-07-09T15:25:22;4.63;;;2.47;;
62633;SDS011;48704;50.534;6.442;2023-07-09T15:27:49;6.95;;;2.97;;
62633;SDS011;48704;50.534;6.442;2023-07-09T15:30:16;5.22;;;3.05;;
62633;SDS011;48704;50.534;6.442;2023-07-09T15:32:47;6.47;;;3.88;;
62633;SDS011;48704;50.534;6.442;2023-07-09T15:35:14;7.65;;;4.00;;
62633;SDS011;48704;50.534;6.442;2023-07-09T15:37:41;7.90;;;4.43;;